Time;durP1;ratioP1;P1;durP2;ratioP2;P2;SDS_P1;SDS_P2;PMS_P1;PMS_P2;Temp;Humidity;BMP_temperature;BMP_pressure;BME280_temperature;BME280_humidity;BME280_pressure;Samples;Min_cycle;Max_cycle;Signal;HPM_P1;HPM_P2
2023/12/02 13:34:27;;;;;;;21.40;11.88;;;;;;;;;;5031932;28;20100;-92
2023/12/02 13:36:53;;;;;;;23.27;11.80;;;;;;;;;;4972421;28;20816;-71
2023/12/02 13:39:19;;;;;;;25.33;12.85;;;;;;;;;;4982386;28;20104;-71
2023/12/02 13:41:47;;;;;;;26.00;12.35;;;;;;;;;;4987272;28;20049;-71
2023/12/02 13:44:16;;;;;;;32.10;15.07;;;;;;;;;;4972769;28;20046;-73
2023/12/02 13:47:07;;;;;;;32.20;16.85;;;;;;;;;;4987747;28;20046;-73
2023/12/02 13:49:36;;;;;;;33.08;17.40;;;;;;;;;;4986123;28;20096;-71
2023/12/02 13:52:21;;;;;;;37.63;18.33;;;;;;;;;;4986340;28;20048;-71
2023/12/02 13:54:58;;;;;;;31.20;16.85;;;;;;;;;;4984038;28;20046;-72
2023/12/02 13:57:44;;;;;;;35.17;17.38;;;;;;;;;;4987305;28;20041;-72
2023/12/02 14:00:11;;;;;;;36.53;18.00;;;;;;;;;;4985272;28;20057;-72
2023/12/02 14:02:51;;;;;;;31.35;16.20;;;;;;;;;;4986565;28;20041;-71
2023/12/02 14:05:26;;;;;;;32.67;17.08;;;;;;;;;;4973744;28;20050;-73
2023/12/02 14:07:52;;;;;;;27.95;14.45;;;;;;;;;;4961963;28;20050;-73
2023/12/02 14:10:20;;;;;;;30.33;15.18;;;;;;;;;;4984919;28;20045;-72
2023/12/02 14:12:49;;;;;;;31.48;16.02;;;;;;;;;;4985589;28;20050;-71
2023/12/02 14:15:38;;;;;;;32.00;14.68;;;;;;;;;;5000718;28;20083;-71
2023/12/02 14:18:14;;;;;;;30.20;14.13;;;;;;;;;;5002271;28;20041;-73
2023/12/02 14:20:40;;;;;;;;;;;;;;;;;;4986198;28;20054;-73
2023/12/02 14:23:15;;;;;;;26.63;12.75;;;;;;;;;;4989462;28;19964;-72
2023/12/02 14:25:51;;;;;;;24.42;12.50;;;;;;;;;;4985493;28;20056;-72
2023/12/02 14:28:22;;;;;;;29.70;13.50;;;;;;;;;;4988415;28;20046;-72
2023/12/02 14:30:48;;;;;;;26.27;12.80;;;;;;;;;;4979160;28;20042;-72
2023/12/02 14:33:35;;;;;;;26.83;13.57;;;;;;;;;;4981501;28;20112;-73
2023/12/02 14:36:05;;;;;;;30.95;13.73;;;;;;;;;;4981037;28;20054;-73
2023/12/02 14:38:34;;;;;;;32.58;14.82;;;;;;;;;;4982915;28;20058;-73
2023/12/02 14:41:39;;;;;;;30.63;14.80;;;;;;;;;;4986657;28;20153;-73
2023/12/02 14:44:17;;;;;;;33.28;14.48;;;;;;;;;;4910288;29;20062;-73
2023/12/02 14:46:54;;;;;;;34.50;15.88;;;;;;;;;;4911290;29;20693;-73
2023/12/02 14:49:20;;;;;;;30.40;15.30;;;;;;;;;;4956829;28;20057;-73
2023/12/02 14:51:46;;;;;;;31.30;15.65;;;;;;;;;;4982364;28;20050;-71
2023/12/02 14:54:13;;;;;;;35.25;16.13;;;;;;;;;;4981852;28;20096;-73
2023/12/02 14:56:40;;;;;;;32.80;15.45;;;;;;;;;;4966380;28;20056;-73
2023/12/02 14:59:06;;;;;;;39.10;15.35;;;;;;;;;;4984581;28;20078;-73
2023/12/02 15:01:35;;;;;;;34.00;15.00;;;;;;;;;;4982055;28;20096;-73
2023/12/02 15:04:01;;;;;;;31.65;15.45;;;;;;;;;;4989263;28;20465;-73
2023/12/02 15:06:29;;;;;;;36.55;15.30;;;;;;;;;;5003585;28;20038;-73
2023/12/02 15:08:55;;;;;;;36.05;15.85;;;;;;;;;;4985764;28;20042;-73
2023/12/02 15:11:22;;;;;;;43.15;17.48;;;;;;;;;;4985823;28;20093;-73
2023/12/02 15:13:51;;;;;;;41.25;18.17;;;;;;;;;;4985708;28;20050;-73
2023/12/02 15:16:18;;;;;;;45.42;20.30;;;;;;;;;;5003611;28;20050;-73
2023/12/02 15:18:45;;;;;;;58.15;23.10;;;;;;;;;;4986005;28;20046;-73
2023/12/02 15:21:13;;;;;;;56.22;23.77;;;;;;;;;;4986807;28;20050;-73
2023/12/02 15:23:42;;;;;;;47.67;20.25;;;;;;;;;;4986488;28;20046;-73
2023/12/02 15:26:11;;;;;;;57.47;19.38;;;;;;;;;;5004149;28;20073;-73
2023/12/02 15:28:37;;;;;;;46.38;20.27;;;;;;;;;;4986118;28;20112;-73
2023/12/02 15:31:12;;;;;;;44.78;19.05;;;;;;;;;;4986306;28;20042;-73
2023/12/02 15:33:38;;;;;;;;;;;;;;;;;;4986810;28;20037;-73
2023/12/02 15:36:05;;;;;;;40.80;18.27;;;;;;;;;;4986652;28;19929;-73
2023/12/02 15:38:32;;;;;;;42.58;17.75;;;;;;;;;;4965395;28;20050;-73
2023/12/02 15:40:58;;;;;;;43.08;17.10;;;;;;;;;;4986459;28;20050;-73
2023/12/02 15:43:24;;;;;;;42.50;17.33;;;;;;;;;;4986747;28;20049;-73
2023/12/02 15:45:50;;;;;;;40.75;16.95;;;;;;;;;;5004368;28;20797;-73
2023/12/02 15:48:16;;;;;;;39.47;17.33;;;;;;;;;;4985955;28;20053;-75
2023/12/02 15:50:42;;;;;;;36.25;16.77;;;;;;;;;;4968388;28;20042;-73
2023/12/02 15:53:09;;;;;;;32.00;15.55;;;;;;;;;;4985365;28;20053;-74
2023/12/02 15:55:37;;;;;;;39.72;16.77;;;;;;;;;;5003997;28;20731;-75
2023/12/02 15:58:03;;;;;;;38.17;16.90;;;;;;;;;;4986189;28;20403;-74
2023/12/02 16:00:29;;;;;;;39.17;16.60;;;;;;;;;;4986132;28;20057;-75
2023/12/02 16:02:56;;;;;;;33.58;14.70;;;;;;;;;;5003406;28;20049;-75
2023/12/02 16:05:23;;;;;;;35.58;16.42;;;;;;;;;;5009889;28;20042;-75
2023/12/02 16:07:49;;;;;;;36.40;17.08;;;;;;;;;;4989902;28;20400;-74
2023/12/02 16:10:16;;;;;;;31.92;14.10;;;;;;;;;;4991020;28;20069;-75
2023/12/02 16:12:43;;;;;;;33.05;14.60;;;;;;;;;;5010474;28;20135;-75
2023/12/02 16:15:09;;;;;;;37.80;15.27;;;2.10;99.90;;;;;;4995112;28;20048;-74
2023/12/02 16:17:35;;;;;;;36.10;15.13;;;;;;;;;;5004945;28;20050;-75
2023/12/02 16:20:01;;;;;;;35.22;17.27;;;;;;;;;;4989565;28;20050;-74
2023/12/02 16:22:27;;;;;;;31.42;14.73;;;;;;;;;;4990213;28;20041;-75
2023/12/02 16:24:54;;;;;;;35.70;16.38;;;;;;;;;;4991476;28;20860;-75
2023/12/02 16:27:22;;;;;;;36.25;15.10;;;;;;;;;;4990735;28;20116;-74
2023/12/02 16:29:49;;;;;;;37.65;16.30;;;;;;;;;;4989632;28;20053;-75
2023/12/02 16:32:15;;;;;;;34.50;15.73;;;;;;;;;;4989510;28;20418;-75
2023/12/02 16:34:41;;;;;;;37.42;16.38;;;;;;;;;;4984278;28;20045;-75
2023/12/02 16:37:08;;;;;;;34.15;15.18;;;;;;;;;;4989211;28;20053;-75
2023/12/02 16:39:35;;;;;;;35.45;16.65;;;;;;;;;;4992674;28;20047;-75
2023/12/02 16:42:01;;;;;;;38.90;16.63;;;;;;;;;;5009426;28;20042;-75
2023/12/02 16:44:27;;;;;;;36.55;15.48;;;;;;;;;;4990360;28;20693;-75
2023/12/02 16:46:53;;;;;;;36.55;15.35;;;;;;;;;;4987422;28;20038;-75
2023/12/02 16:49:20;;;;;;;38.03;16.38;;;;;;;;;;4986146;28;20129;-73
2023/12/02 16:51:46;;;;;;;37.45;15.73;;;;;;;;;;4990590;28;20069;-74
2023/12/02 16:54:13;;;;;;;36.13;14.68;;;;;;;;;;4987892;28;20049;-74
2023/12/02 16:56:39;;;;;;;36.67;15.35;;;;;;;;;;4989960;28;20053;-77
2023/12/02 16:59:18;;;;;;;33.28;14.32;;;;;;;;;;4984682;28;20045;-75
2023/12/02 17:01:44;;;;;;;31.17;15.18;;;;;;;;;;5006134;28;20567;-76
2023/12/02 17:04:10;;;;;;;34.88;15.38;;;;;;;;;;4986425;28;20099;-76
2023/12/02 17:06:40;;;;;;;32.38;15.25;;;;;;;;;;4988205;28;20547;-77
2023/12/02 17:09:13;;;;;;;32.17;14.48;;;;;;;;;;4985784;28;20095;-76
2023/12/02 17:11:39;;;;;;;35.00;16.02;;;;;;;;;;4987953;28;20514;-76
2023/12/02 17:14:09;;;;;;;36.58;16.63;;;;;;;;;;4987183;28;20057;-76
2023/12/02 17:16:52;;;;;;;38.22;16.27;;;;;;;;;;4987407;28;20050;-76
2023/12/02 17:19:19;;;;;;;37.38;16.48;;;;;;;;;;4986092;28;20050;-77
2023/12/02 17:21:49;;;;;;;37.38;14.50;;;;;;;;;;4974020;28;20873;-74
2023/12/02 17:24:40;;;;;;;34.97;16.30;;;2.10;99.90;;;;;;4984918;28;20057;-77
2023/12/02 17:27:07;;;;;;;31.55;16.13;;;;;;;;;;5001395;28;20049;-76
2023/12/02 17:29:34;;;;;;;41.03;17.23;;;;;;;;;;4970026;28;20492;-77
2023/12/02 17:32:01;;;;;;;36.33;16.38;;;;;;;;;;4980799;28;20076;-75
2023/12/02 17:34:27;;;;;;;38.33;16.73;;;;;;;;;;5002334;28;20748;-77
2023/12/02 17:36:54;;;;;;;36.30;16.17;;;;;;;;;;5002358;28;20049;-77
2023/12/02 17:39:20;;;;;;;40.42;17.23;;;;;;;;;;4985689;28;20046;-76
2023/12/02 17:41:49;;;;;;;43.95;18.15;;;;;;;;;;4986864;28;20487;-77
2023/12/02 17:44:16;;;;;;;39.60;17.08;;;;;;;;;;4986275;28;20424;-77
2023/12/02 17:46:43;;;;;;;38.78;16.38;;;;;;;;;;4989982;28;20045;-77
2023/12/02 17:49:10;;;;;;;41.22;18.48;;;;;;;;;;4986677;28;20563;-77
2023/12/02 17:51:36;;;;;;;44.80;19.23;;;;;;;;;;4986465;28;20049;-77
2023/12/02 17:54:03;;;;;;;43.17;19.48;;;;;;;;;;4985122;28;20782;-74
2023/12/02 17:56:29;;;;;;;43.20;18.38;;;;;;;;;;4983972;28;20049;-74
2023/12/02 17:58:55;;;;;;;44.03;18.05;;;;;;;;;;4987360;28;20053;-73
2023/12/02 18:01:21;;;;;;;42.67;19.17;;;;;;;;;;4983313;28;20042;-74
2023/12/02 18:03:47;;;;;;;45.55;17.88;;;;;;;;;;4985053;28;20046;-74
2023/12/02 18:06:13;;;;;;;48.40;21.50;;;;;;;;;;4986048;28;20050;-74
2023/12/02 18:08:39;;;;;;;46.33;19.67;;;;;;;;;;4986166;28;20393;-75
2023/12/02 18:11:05;;;;;;;47.53;20.48;;;;;;;;;;5004907;28;20085;-74
2023/12/02 18:16:54;;;;;;;40.72;17.20;;;;;;;;;;5006352;28;20139;-74
2023/12/02 18:19:20;;;;;;;42.65;18.98;;;;;;;;;;4987560;28;20488;-75
2023/12/02 18:21:46;;;;;;;47.80;19.65;;;;;;;;;;4986946;28;20054;-74
2023/12/02 18:24:12;;;;;;;50.13;20.17;;;;;;;;;;5005093;28;20042;-74
2023/12/02 18:26:38;;;;;;;43.55;19.70;;;;;;;;;;4987143;28;20045;-74
2023/12/02 18:29:05;;;;;;;45.53;19.02;;;;;;;;;;4987050;28;20061;-74
2023/12/02 18:31:31;;;;;;;55.88;20.02;;;;;;;;;;4986615;28;20038;-74
2023/12/02 18:33:57;;;;;;;50.35;21.08;;;;;;;;;;4986835;28;20080;-74
2023/12/02 18:36:23;;;;;;;50.45;20.90;;;;;;;;;;4986704;28;20084;-74
2023/12/02 18:38:49;;;;;;;51.47;20.38;;;;;;;;;;4987186;28;20116;-74
2023/12/02 18:41:16;;;;;;;51.38;20.08;;;;;;;;;;4968740;28;20053;-74
2023/12/02 18:43:42;;;;;;;42.08;19.98;;;;;;;;;;4987210;28;20819;-74
2023/12/02 18:46:08;;;;;;;45.03;19.70;;;;;;;;;;4986743;28;20577;-74
2023/12/02 18:48:34;;;;;;;50.08;19.80;;;;;;;;;;4986617;28;20128;-74
2023/12/02 18:51:00;;;;;;;40.72;19.85;;;;;;;;;;4986329;28;20046;-74
2023/12/02 18:53:26;;;;;;;41.80;18.15;;;;;;;;;;4986568;28;20041;-74
2023/12/02 18:55:52;;;;;;;45.40;19.42;;;;;;;;;;4987045;28;20427;-75
2023/12/02 18:58:20;;;;;;;45.00;18.90;;;;;;;;;;4986550;28;20037;-75
2023/12/02 19:00:46;;;;;;;45.08;20.20;;;;;;;;;;4986118;28;20570;-75
2023/12/02 19:03:13;;;;;;;53.85;21.13;;;;;;;;;;4983790;28;20095;-75
2023/12/02 19:06:32;;;;;;;49.35;20.25;;;1.60;99.90;;;;;;4986795;28;20038;-74
2023/12/02 19:08:58;;;;;;;46.63;19.13;;;;;;;;;;5455082;23;20134;-74
2023/12/02 19:11:24;;;;;;;46.80;19.27;;;;;;;;;;5002394;28;20056;-74
2023/12/02 19:13:56;;;;;;;47.20;19.05;;;;;;;;;;4989801;28;20774;-75
2023/12/02 19:22:20;;;;;;;46.17;19.88;;;;;;;;;;5486106;23;20526;-74
2023/12/02 19:28:02;;;;;;;46.42;18.92;;;;;;;;;;5015161;28;20044;-74
2023/12/02 19:33:51;;;;;;;45.38;20.35;;;;;;;;;;5055645;28;20119;-74
2023/12/02 19:36:17;;;;;;;48.72;19.75;;;;;;;;;;5048467;28;20052;-74
2023/12/02 19:38:43;;;;;;;48.05;18.83;;;;;;;;;;5055223;28;20052;-74
2023/12/02 19:41:09;;;;;;;44.25;17.95;;;;;;;;;;5031681;28;20091;-74
2023/12/02 19:43:35;;;;;;;48.42;19.25;;;;;;;;;;5042169;28;20128;-74
2023/12/02 19:46:01;;;;;;;44.63;18.90;;;;;;;;;;5029959;28;20044;-74
2023/12/02 19:48:27;;;;;;;48.65;19.10;;;;;;;;;;5033796;28;20045;-74
2023/12/02 19:50:54;;;;;;;45.40;19.30;;;;;;;;;;5031172;28;20053;-74
2023/12/02 19:53:20;;;;;;;46.45;19.45;;;;;;;;;;5033958;28;20574;-74
2023/12/02 19:55:46;;;;;;;43.83;17.60;;;;;;;;;;5032919;28;20047;-74
2023/12/02 19:58:13;;;;;;;36.13;17.85;;;;;;;;;;5037868;28;20044;-74
2023/12/02 20:00:39;;;;;;;44.45;18.30;;;;;;;;;;5034529;28;20833;-74
2023/12/02 20:06:18;;;;;;;44.05;18.38;;;;;;;;;;5052826;28;20056;-74
2023/12/02 20:08:44;;;;;;;43.42;17.55;;;;;;;;;;5049034;28;20040;-74
2023/12/02 20:11:10;;;;;;;41.10;17.33;;;;;;;;;;5040328;28;20139;-74
2023/12/02 20:13:36;;;;;;;47.90;18.73;;;;;;;;;;5056922;28;20048;-74
2023/12/02 20:19:24;;;;;;;40.67;16.38;;;;;;;;;;5058407;28;20082;-74
2023/12/02 20:21:50;;;;;;;40.08;17.65;;;;;;;;;;5038171;28;20054;-74
2023/12/02 20:24:16;;;;;;;44.35;17.35;;;;;;;;;;5032793;28;20057;-74
2023/12/02 20:26:42;;;;;;;41.85;18.30;;;;;;;;;;5034241;28;20103;-74
2023/12/02 20:29:08;;;;;;;39.28;17.20;;;;;;;;;;5022833;28;20048;-74
2023/12/02 20:31:34;;;;;;;41.92;17.80;;;;;;;;;;5038636;28;20044;-74
2023/12/02 20:34:01;;;;;;;38.38;16.40;;;;;;;;;;5034539;28;20050;-74
2023/12/02 20:36:27;;;;;;;37.97;18.08;;;;;;;;;;5035401;28;20048;-74
2023/12/02 20:38:54;;;;;;;41.10;16.80;;;;;;;;;;5033229;28;20045;-74
2023/12/02 20:41:20;;;;;;;43.47;18.23;;;;;;;;;;5041383;28;20801;-74
2023/12/02 20:43:46;;;;;;;44.25;17.60;;;;;;;;;;5035957;28;20489;-74
2023/12/02 20:46:12;;;;;;;47.70;19.88;;;;;;;;;;5034195;28;20409;-74
2023/12/02 20:48:41;;;;;;;45.38;17.10;;;;;;;;;;5035068;28;20615;-74
2023/12/02 20:51:08;;;;;;;45.00;17.98;;;;;;;;;;5035083;28;20049;-73
2023/12/02 20:53:34;;;;;;;46.97;18.65;;;;;;;;;;5036318;28;20094;-74
2023/12/02 20:56:00;;;;;;;49.47;17.67;;;;;;;;;;5057866;28;20048;-74
2023/12/02 20:58:26;;;;;;;41.97;18.85;;;;;;;;;;5060106;28;20044;-74
2023/12/02 21:00:53;;;;;;;41.65;16.25;;;;;;;;;;5037865;28;20586;-74
2023/12/02 21:03:19;;;;;;;37.95;16.88;;;;;;;;;;5032447;28;20048;-74
2023/12/02 21:05:45;;;;;;;42.22;16.33;;;;;;;;;;5036190;28;20669;-74
2023/12/02 21:08:11;;;;;;;38.38;16.73;;;;;;;;;;5036472;28;20181;-74
2023/12/02 21:10:40;;;;;;;40.33;16.38;;;;;;;;;;5014348;28;20079;-74
2023/12/02 21:13:10;;;;;;;39.90;16.67;;;;;;;;;;5037321;28;20088;-74
2023/12/02 21:15:36;;;;;;;38.78;16.33;;;;;;;;;;5036365;28;20049;-74
2023/12/02 21:18:03;;;;;;;33.55;15.68;;;;;;;;;;5021097;28;20142;-74
2023/12/02 21:20:30;;;;;;;36.47;15.65;;;;;;;;;;5055258;28;20049;-74
2023/12/02 21:22:56;;;;;;;32.70;14.18;;;;;;;;;;5040104;28;20064;-74
2023/12/02 21:25:22;;;;;;;34.72;13.43;;;;;;;;;;5034911;28;20049;-74
2023/12/02 21:27:48;;;;;;;37.75;15.18;;;;;;;;;;5035286;28;20072;-74
2023/12/02 21:30:34;;;;;;;35.58;13.45;;;;;;;;;;5054230;28;20045;-74
2023/12/02 21:33:00;;;;;;;;;;;;;;;;;;5057697;28;20384;-74
2023/12/02 21:35:27;;;;;;;28.80;14.25;;;;;;;;;;5038167;28;20416;-74
2023/12/02 21:37:54;;;;;;;30.67;13.77;;;;;;;;;;5040589;28;20044;-74
2023/12/02 21:40:21;;;;;;;26.90;13.05;;;;;;;;;;5040955;28;20047;-74
2023/12/02 21:42:51;;;;;;;34.63;13.63;;;;;;;;;;5031132;28;20045;-73
2023/12/02 21:45:35;;;;;;;25.85;12.02;;;;;;;;;;5048711;28;20491;-73
2023/12/02 21:48:09;;;;;;;31.67;12.75;;;;;;;;;;5044827;28;20036;-74
2023/12/02 21:50:40;;;;;;;31.27;13.40;;;;;;;;;;5038568;28;20043;-74
2023/12/02 21:53:07;;;;;;;29.60;12.38;;;;;;;;;;5059157;28;20070;-74
2023/12/02 21:55:33;;;;;;;27.05;12.80;;;;;;;;;;5055460;28;20080;-74
2023/12/02 21:57:59;;;;;;;29.20;13.10;;;;;;;;;;5031325;28;20124;-74
2023/12/02 22:00:25;;;;;;;29.83;13.55;;;;;;;;;;5030325;28;20461;-74
2023/12/02 22:02:51;;;;;;;28.30;14.20;;;;;;;;;;5050384;28;20451;-74
2023/12/02 22:05:21;;;;;;;26.05;12.80;;;;;;;;;;5029871;28;20506;-74
2023/12/02 22:07:47;;;;;;;26.83;12.98;;;;;;;;;;5053707;28;20422;-74
2023/12/02 22:10:39;;;;;;;26.40;13.38;;;;;;;;;;5041107;28;20044;-74
2023/12/02 22:13:06;;;;;;;29.17;13.07;;;;;;;;;;5027787;28;20489;-74
2023/12/02 22:15:37;;;;;;;22.08;12.15;;;;;;;;;;5037558;28;20505;-74
2023/12/02 22:18:04;;;;;;;23.92;12.48;;;;;;;;;;5056223;28;20045;-74
2023/12/02 22:20:31;;;;;;;31.58;13.95;;;;;;;;;;5031504;28;20052;-74
2023/12/02 22:23:00;;;;;;;26.27;12.95;;;;;;;;;;5030056;28;20484;-74
2023/12/02 22:25:28;;;;;;;29.02;13.93;;;;;;;;;;5033949;28;20100;-74
2023/12/02 22:28:11;;;;;;;28.42;12.57;;;;;;;;;;5033143;28;20056;-74
2023/12/02 22:39:51;;;;;;;23.13;13.13;;;;;;;;;;5062064;28;20048;-74
2023/12/02 22:42:19;;;;;;;25.17;12.20;;;;;;;;;;5042523;28;20497;-74
2023/12/02 22:44:45;;;;;;;27.40;11.70;;;;;;;;;;5060749;28;20190;-74
2023/12/02 22:47:15;;;;;;;23.02;11.57;;;;;;;;;;5044421;28;20881;-74
2023/12/02 22:49:41;;;;;;;23.20;12.65;;;;;;;;;;5045059;28;20044;-74
2023/12/02 22:55:42;;;;;;;23.80;12.57;;;;;;;;;;5061603;28;20054;-74
2023/12/02 22:58:08;;;;;;;20.30;10.30;;;;;;;;;;5045324;28;20052;-74
2023/12/02 23:00:39;;;;;;;21.85;12.00;;;;;;;;;;5045346;28;20048;-74
2023/12/02 23:06:50;;;;;;;20.83;10.70;;;;;;;;;;5059593;28;20497;-74
2023/12/02 23:09:28;;;;;;;22.63;11.73;;;;;;;;;;5040329;28;20044;-74
2023/12/02 23:11:54;;;;;;;23.58;10.80;;;;;;;;;;5043220;28;20075;-74
2023/12/02 23:14:33;;;;;;;20.30;10.98;;;;;;;;;;5045673;28;20136;-74
2023/12/02 23:16:59;;;;;;;20.67;11.23;;;;;;;;;;5044751;28;20757;-74
2023/12/02 23:19:35;;;;;;;23.13;12.48;;;;;;;;;;5042686;28;20052;-74
2023/12/02 23:22:02;;;;;;;22.27;11.85;;;;;;;;;;5045660;28;20060;-74
2023/12/02 23:24:35;;;;;;;21.00;10.73;;;;;;;;;;5045634;28;20044;-73
2023/12/02 23:27:02;;;;;;;20.05;11.25;;;;;;;;;;5045706;28;20048;-74
2023/12/02 23:48:35;;;;;;;;;;;;;;;;;;5445137;24;20085;-74
2023/12/02 23:51:01;;;;;;;24.23;10.43;;;;;;;;;;4831571;29;20039;-73
2023/12/02 23:53:27;;;;;;;22.55;10.65;;;;;;;;;;4831875;29;20061;-74
2023/12/02 23:55:53;;;;;;;19.23;9.85;;;;;;;;;;4833482;29;20046;-74
